createdAt,value
2023-03-12T10:59:25.664Z,96235.41
2023-03-12T11:00:29.307Z,96236.47
2023-03-12T11:01:32.185Z,96238.72
2023-03-12T12:01:57.923Z,96249.75
2023-03-12T13:33:40.539Z,96210.03
2023-03-12T13:34:45.755Z,96217.81
2023-03-12T13:36:12.121Z,96217.19
2023-03-12T13:37:28.759Z,96208.53
2023-03-12T13:38:52.841Z,96212.03
2023-03-12T13:39:54.257Z,96213.09
2023-03-12T13:41:02.344Z,96204.91
2023-03-12T13:42:28.234Z,96211.34
2023-03-12T14:13:49.109Z,96217.16
2023-03-12T14:15:18.669Z,96210.06
2023-03-12T14:16:34.241Z,96194.41
2023-03-12T14:17:37.852Z,96228.31
2023-03-12T14:18:43.771Z,96217.00
2023-03-12T14:19:50.672Z,96225.44
2023-03-12T14:20:59.305Z,96228.44
2023-03-12T14:22:04.990Z,96223.13
2023-03-12T14:23:13.146Z,96211.19
2023-03-12T14:24:58.204Z,96237.66
2023-03-12T14:26:04.159Z,96225.09
2023-03-12T14:27:13.914Z,96245.72
2023-03-12T14:28:24.034Z,96245.22
2023-03-12T14:29:31.259Z,96237.03
2023-03-12T14:30:57.037Z,96239.22
2023-03-12T14:32:03.295Z,96223.41
2023-03-12T14:33:05.459Z,96224.44
2023-03-12T14:34:20.917Z,96229.59
2023-03-12T14:35:37.254Z,96224.56
2023-03-12T14:36:46.949Z,96218.44
2023-03-12T14:38:11.609Z,96217.28
2023-03-12T14:39:21.162Z,96212.75
2023-03-12T14:40:53.325Z,96215.88
2023-03-12T14:42:04.878Z,96215.97
2023-03-12T14:43:29.279Z,96211.75
2023-03-12T14:44:32.442Z,96204.91
2023-03-12T14:45:40.091Z,96214.69
2023-03-12T14:46:55.028Z,96212.31
2023-03-12T14:47:58.550Z,96215.59
2023-03-12T14:49:00.153Z,96201.28
2023-03-12T14:50:01.672Z,96203.91
2023-03-12T14:51:05.471Z,96203.72
2023-03-12T14:52:08.187Z,96203.41
2023-03-12T14:53:18.698Z,96203.47
2023-03-12T14:54:24.072Z,96201.22
2023-03-12T14:55:26.115Z,96203.66
2023-03-12T14:56:35.834Z,96212.22
2023-03-12T14:57:37.758Z,96213.00
2023-03-12T14:58:48.030Z,96221.59
2023-03-12T14:59:57.527Z,96227.72
2023-03-12T15:01:03.303Z,96225.16
2023-03-12T15:02:14.506Z,96224.78
2023-03-12T15:03:17.453Z,96221.56
2023-03-12T15:04:24.047Z,96226.28
2023-03-12T15:05:26.670Z,96226.38
2023-03-12T15:06:29.931Z,96222.94
2023-03-12T15:07:39.758Z,96221.78
2023-03-12T15:08:44.053Z,96214.25
2023-03-12T15:09:50.016Z,96210.84
2023-03-12T15:10:54.566Z,96217.91
2023-03-12T15:12:07.866Z,96216.53
2023-03-12T15:13:12.948Z,96206.13
2023-03-12T15:14:15.963Z,96209.25
2023-03-12T15:15:46.579Z,96204.72
2023-03-12T15:16:49.050Z,96197.19
2023-03-12T15:17:50.833Z,96212.69
2023-03-12T15:18:53.035Z,96205.81
2023-03-12T15:19:57.165Z,96197.13
2023-03-12T15:21:01.523Z,96194.19
2023-03-12T15:22:04.532Z,96201.44
2023-03-12T15:23:07.456Z,96209.13
2023-03-12T15:24:13.309Z,96205.75
2023-03-12T15:25:20.899Z,96199.06
2023-03-12T15:26:22.255Z,96200.53
